Time;durP1;ratioP1;P1;durP2;ratioP2;P2;SDS_P1;SDS_P2;PMS_P1;PMS_P2;Temp;Humidity;BMP_temperature;BMP_pressure;BME280_temperature;BME280_humidity;BME280_pressure;Samples;Min_cycle;Max_cycle;Signal;HPM_P1;HPM_P2
2020/12/06 00:01:17;;;;;;;57.70;21.97;;;;;;;-0.35;100.00;94895.91;4957795;28;20046;-65
2020/12/06 00:03:42;;;;;;;53.67;21.20;;;;;;;-0.31;100.00;94885.25;4962742;28;20054;-67
2020/12/06 00:06:08;;;;;;;63.20;23.25;;;;;;;-0.33;100.00;94872.16;4957437;28;20145;-67
2020/12/06 00:08:33;;;;;;;55.83;21.13;;;;;;;-0.36;100.00;94874.72;4962566;28;20043;-67
2020/12/06 00:10:58;;;;;;;52.22;21.80;;;;;;;-0.30;100.00;94878.75;4963531;28;20089;-65
2020/12/06 00:13:24;;;;;;;57.35;21.25;;;;;;;-0.30;100.00;94862.63;4964949;28;20093;-65
2020/12/06 00:15:49;;;;;;;51.50;20.63;;;;;;;-0.29;100.00;94851.53;4968775;28;20046;-66
2020/12/06 00:18:15;;;;;;;46.15;19.70;;;;;;;-0.27;100.00;94875.38;4967939;28;20046;-64
2020/12/06 00:20:40;;;;;;;51.97;21.15;;;;;;;-0.24;100.00;94885.47;4989524;28;20086;-64
2020/12/06 00:23:06;;;;;;;49.33;19.52;;;;;;;-0.17;100.00;94882.19;4964129;28;20058;-66
2020/12/06 00:25:31;;;;;;;39.15;17.73;;;;;;;0.10;100.00;94889.47;4966456;28;20042;-67
2020/12/06 00:27:57;;;;;;;44.30;17.83;;;;;;;0.19;100.00;94886.63;4966274;28;20078;-67
2020/12/06 00:30:22;;;;;;;42.95;18.52;;;;;;;0.10;99.89;94875.25;4960292;28;20204;-67
2020/12/06 00:32:47;;;;;;;41.72;19.02;;;;;;;0.02;99.30;94860.81;4965984;28;20045;-67
2020/12/06 00:35:13;;;;;;;42.00;17.77;;;;;;;0.02;99.60;94862.69;4961110;28;20050;-67
2020/12/06 00:37:39;;;;;;;38.95;18.52;;;;;;;-0.10;99.21;94863.56;4964864;28;20081;-66
2020/12/06 00:40:09;;;;;;;38.22;16.90;;;;;;;-0.10;99.41;94864.34;4960677;28;20043;-64
2020/12/06 00:42:35;;;;;;;40.88;19.27;;;;;;;-0.09;99.11;94859.72;4965303;28;20066;-66
2020/12/06 00:45:02;;;;;;;41.15;18.55;;;;;;;-0.06;99.07;94859.81;4959588;28;20043;-66
2020/12/06 00:47:28;;;;;;;38.83;17.63;;;;;;;0.23;99.46;94884.03;4962162;28;20133;-65
2020/12/06 00:49:53;;;;;;;36.20;17.75;;;;;;;0.24;98.38;94872.16;4965846;28;20129;-64
2020/12/06 00:52:18;;;;;;;32.83;16.83;;;;;;;0.27;98.02;94853.41;4959325;28;20066;-66
2020/12/06 00:54:44;;;;;;;32.70;16.55;;;;;;;0.33;98.12;94860.09;4964296;28;20063;-65
2020/12/06 00:57:09;;;;;;;27.02;13.30;;;;;;;0.47;97.88;94870.44;4955002;28;20121;-66
2020/12/06 00:59:34;;;;;;;28.98;14.52;;;;;;;0.42;97.17;94872.63;4961233;28;20077;-66
2020/12/06 01:02:03;;;;;;;27.55;14.27;;;;;;;0.52;97.39;94880.97;4968806;28;20038;-70
2020/12/06 01:04:29;;;;;;;25.33;12.75;;;;;;;0.63;96.87;94899.28;4972402;28;20059;-66
2020/12/06 01:06:58;;;;;;;26.83;13.93;;;;;;;0.51;96.15;94884.00;4963526;28;20058;-66
2020/12/06 01:09:23;;;;;;;27.17;13.15;;;;;;;0.32;96.14;94868.50;4943844;28;20389;-66
2020/12/06 01:11:49;;;;;;;28.13;14.18;;;;;;;0.29;96.83;94863.81;4964010;28;20050;-64
2020/12/06 01:14:14;;;;;;;28.42;13.90;;;;;;;0.39;96.32;94879.47;4959581;28;20047;-65
2020/12/06 01:16:39;;;;;;;25.88;13.27;;;;;;;0.45;96.79;94888.88;4964487;28;20558;-65
2020/12/06 01:19:05;;;;;;;27.33;13.75;;;;;;;0.43;96.11;94884.94;4958741;28;20155;-65
2020/12/06 01:21:30;;;;;;;26.23;12.43;;;;;;;0.40;96.73;94880.22;4964890;28;20097;-65
2020/12/06 01:23:55;;;;;;;25.63;13.38;;;;;;;0.41;97.00;94869.13;4962429;28;20407;-64
2020/12/06 01:26:21;;;;;;;26.08;13.32;;;;;;;0.43;96.82;94871.47;4960322;28;20078;-64
2020/12/06 01:28:46;;;;;;;25.08;13.30;;;;;;;0.37;96.12;94871.72;4965396;28;20046;-66
2020/12/06 01:31:12;;;;;;;26.40;12.77;;;;;;;0.30;96.33;94863.47;4959780;28;20072;-66
2020/12/06 01:33:37;;;;;;;22.23;12.02;;;;;;;0.38;96.93;94859.06;4963329;28;20054;-65
2020/12/06 01:36:03;;;;;;;24.23;13.00;;;;;;;0.46;96.31;94843.84;4961886;28;20134;-66
2020/12/06 01:38:28;;;;;;;25.90;12.80;;;;;;;0.40;96.64;94851.41;4963350;28;20101;-65
2020/12/06 01:40:54;;;;;;;22.25;10.98;;;;;;;0.44;95.97;94829.94;4962990;28;20054;-65
2020/12/06 01:43:19;;;;;;;22.45;11.32;;;;;;;0.55;96.01;94836.38;4959531;28;20043;-65
2020/12/06 01:45:45;;;;;;;22.70;12.73;;;;;;;0.51;96.02;94827.44;4965825;28;20125;-65
2020/12/06 01:48:10;;;;;;;22.90;12.02;;;;;;;0.51;95.79;94843.59;4959989;28;20460;-66
2020/12/06 01:50:37;;;;;;;23.92;11.82;;;;;;;0.59;95.45;94845.31;4965304;28;20078;-65
2020/12/06 01:53:04;;;;;;;21.45;10.88;;;;;;;0.70;95.71;94845.59;4957439;28;20133;-66
2020/12/06 01:55:31;;;;;;;21.02;11.65;;;;;;;0.73;95.82;94842.19;4961406;28;20038;-65
2020/12/06 01:58:07;;;;;;;22.65;11.65;;;;;;;0.80;95.09;94853.16;4964544;28;20047;-65
2020/12/06 02:00:33;;;;;;;19.92;11.75;;;;;;;0.83;95.01;94846.28;4957005;28;20046;-65
2020/12/06 02:02:59;;;;;;;21.58;11.90;;;;;;;0.90;95.17;94859.91;4964356;28;20039;-64
2020/12/06 02:05:25;;;;;;;20.75;11.40;;;;;;;0.87;94.46;94860.63;4960112;28;20062;-62
2020/12/06 02:07:53;;;;;;;21.85;11.20;;;;;;;0.88;94.55;94862.19;4962765;28;20125;-65
2020/12/06 02:10:18;;;;;;;19.50;10.68;;;;;;;0.88;94.58;94857.59;4959289;28;20039;-66
2020/12/06 02:12:47;;;;;;;21.33;11.57;;;;;;;0.79;94.94;94856.19;4963816;28;20456;-64
2020/12/06 02:15:14;;;;;;;23.80;11.80;;;;;;;0.73;94.24;94847.59;4957943;28;20046;-66
2020/12/06 02:17:39;;;;;;;22.85;12.02;;;;;;;0.87;94.36;94852.53;4963726;28;20047;-65
2020/12/06 02:20:05;;;;;;;20.20;10.95;;;;;;;1.09;94.46;94848.44;4956090;28;20519;-66
2020/12/06 02:22:31;;;;;;;20.92;10.38;;;;;;;1.05;93.87;94856.44;4961778;28;20047;-66
2020/12/06 02:24:56;;;;;;;21.52;11.23;;;;;;;1.03;93.60;94866.78;4962633;28;20043;-66
2020/12/06 02:27:21;;;;;;;21.73;11.05;;;;;;;0.89;93.67;94875.31;4959465;28;20279;-64
2020/12/06 02:29:47;;;;;;;22.42;11.40;;;;;;;0.93;93.34;94862.69;4964195;28;20049;-65
2020/12/06 02:32:13;;;;;;;21.20;10.77;;;;;;;1.10;93.64;94863.47;4971871;28;20053;-64
2020/12/06 02:34:38;;;;;;;17.08;9.82;;;;;;;1.05;93.23;94866.44;4979929;28;20122;-65
2020/12/06 02:37:04;;;;;;;19.85;10.75;;;;;;;1.14;92.59;94856.25;4960812;28;20049;-64
2020/12/06 02:39:29;;;;;;;20.20;10.38;;;;;;;1.07;92.96;94866.88;4964236;28;20046;-65
2020/12/06 02:41:54;;;;;;;21.55;11.13;;;;;;;1.12;93.07;94847.72;4964186;28;20053;-65
2020/12/06 02:44:20;;;;;;;21.90;11.60;;;;;;;1.24;92.14;94847.63;4968541;28;20054;-66
2020/12/06 02:46:45;;;;;;;25.48;12.45;;;;;;;1.16;92.20;94858.59;4985063;28;20133;-65
2020/12/06 02:49:11;;;;;;;24.08;12.10;;;;;;;1.12;92.08;94853.13;4977854;28;20105;-66
2020/12/06 02:51:36;;;;;;;24.60;12.32;;;;;;;1.14;91.70;94840.84;4965173;28;20050;-64
2020/12/06 02:54:02;;;;;;;26.67;13.38;;;;;;;1.17;92.44;94812.41;4946252;28;20102;-64
2020/12/06 02:56:28;;;;;;;21.45;11.63;;;;;;;1.10;92.36;94823.03;4944469;28;20047;-64
2020/12/06 02:58:53;;;;;;;26.05;11.57;;;;;;;1.05;92.47;94796.34;4951148;28;20047;-65
2020/12/06 03:01:19;;;;;;;28.75;12.93;;;;;;;1.14;92.27;94786.91;4955090;28;20057;-67
2020/12/06 03:03:44;;;;;;;27.27;13.07;;;;;;;1.08;92.50;94772.16;4962174;28;20035;-63
2020/12/06 03:06:10;;;;;;;23.83;12.27;;;;;;;0.92;92.82;94782.19;4958355;28;20046;-63
2020/12/06 03:08:37;;;;;;;27.40;12.80;;;;;;;0.70;93.77;94807.84;4962333;28;20047;-64
2020/12/06 03:11:10;;;;;;;23.40;12.13;;;;;;;0.80;94.05;94820.03;4959485;28;20042;-63
2020/12/06 03:13:36;;;;;;;26.23;13.60;;;;;;;1.00;93.88;94845.91;4969859;28;20050;-64
2020/12/06 03:16:03;;;;;;;24.10;13.27;;;;;;;0.78;94.23;94852.72;4963185;28;20038;-64
2020/12/06 03:18:28;;;;;;;23.80;12.45;;;;;;;0.75;94.18;94848.03;4962387;28;20042;-65
2020/12/06 03:20:54;;;;;;;23.65;12.48;;;;;;;0.66;93.80;94831.25;4963508;28;20054;-64
2020/12/06 03:23:19;;;;;;;25.05;13.63;;;;;;;0.75;94.04;94831.84;4972150;28;20077;-66
2020/12/06 03:25:45;;;;;;;25.30;12.52;;;;;;;0.79;94.66;94856.19;4982380;28;20057;-64
2020/12/06 03:28:10;;;;;;;26.23;12.50;;;;;;;0.74;94.23;94876.88;4966099;28;20054;-64
2020/12/06 03:30:35;;;;;;;23.70;11.70;;;;;;;0.73;94.82;94880.69;4962877;28;20098;-63
2020/12/06 03:33:01;;;;;;;26.73;13.10;;;;;;;0.71;94.62;94879.50;4961601;28;20093;-66
2020/12/06 03:35:26;;;;;;;26.80;13.40;;;;;;;0.81;94.80;94880.88;4957015;28;20046;-64
2020/12/06 03:37:52;;;;;;;25.08;11.73;;;;;;;0.89;94.50;94850.28;4962473;28;20042;-64
2020/12/06 03:40:17;;;;;;;24.33;12.07;;;;;;;0.98;93.52;94845.47;4956213;28;20578;-64
2020/12/06 03:42:42;;;;;;;23.80;11.80;;;;;;;1.08;93.33;94820.69;4962276;28;20039;-64
2020/12/06 03:45:08;;;;;;;23.67;11.65;;;;;;;1.09;92.92;94818.75;4956873;28;20093;-64
2020/12/06 03:47:34;;;;;;;22.38;11.73;;;;;;;1.07;92.84;94821.03;4966642;28;20138;-66
2020/12/06 03:49:59;;;;;;;24.83;12.35;;;;;;;1.07;92.13;94812.94;4961983;28;20070;-65
2020/12/06 03:52:25;;;;;;;23.35;12.07;;;;;;;0.98;92.70;94815.84;4960006;28;20050;-65
2020/12/06 03:54:50;;;;;;;26.10;11.77;;;;;;;1.02;93.05;94822.06;4966683;28;20042;-64
2020/12/06 03:57:16;;;;;;;24.67;11.48;;;;;;;1.11;93.09;94825.34;4957995;28;20047;-64
2020/12/06 03:59:41;;;;;;;21.20;10.68;;;;;;;1.07;92.74;94837.97;4965415;28;20057;-64
2020/12/06 04:02:07;;;;;;;19.48;11.20;;;;;;;0.93;92.30;94851.13;4961093;28;20183;-64
2020/12/06 04:04:33;;;;;;;23.85;12.30;;;;;;;0.98;93.13;94860.88;4965125;28;20138;-64
2020/12/06 04:06:58;;;;;;;21.45;10.77;;;;;;;1.01;93.37;94849.38;4962793;28;20074;-64
2020/12/06 04:09:24;;;;;;;23.70;12.48;;;;;;;1.14;93.09;94835.44;4960244;28;21016;-66
2020/12/06 04:11:49;;;;;;;23.40;11.93;;;;;;;1.04;92.13;94838.69;4966083;28;20047;-66
2020/12/06 04:14:15;;;;;;;21.92;10.73;;;;;;;0.88;92.29;94862.19;4959998;28;20055;-64
2020/12/06 04:16:40;;;;;;;24.05;11.45;;;;;;;0.77;93.74;94875.41;4966490;28;20101;-64
2020/12/06 04:19:06;;;;;;;25.92;12.35;;;;;;;0.80;94.00;94892.81;4959907;28;20043;-63
2020/12/06 04:21:31;;;;;;;27.10;12.48;;;;;;;0.81;94.17;94878.97;4965938;28;20046;-66
2020/12/06 04:23:56;;;;;;;22.17;11.07;;;;;;;0.88;93.89;94872.97;4966268;28;20085;-66
2020/12/06 04:26:22;;;;;;;22.92;11.43;;;;;;;0.97;93.68;94860.09;4958785;28;20690;-64
2020/12/06 04:28:47;;;;;;;23.02;11.25;;;;;;;1.08;93.45;94860.31;4965818;28;20057;-66
2020/12/06 04:31:13;;;;;;;20.30;11.20;;;;;;;1.12;93.37;94866.59;4960323;28;20055;-64
2020/12/06 04:33:38;;;;;;;22.88;11.45;;;;;;;1.03;92.34;94877.56;4964607;28;20686;-65
2020/12/06 04:36:03;;;;;;;20.40;11.07;;;;;;;0.84;92.54;94882.88;4962936;28;20041;-64
2020/12/06 04:38:29;;;;;;;21.35;11.80;;;;;;;0.68;92.90;94888.25;4963764;28;20121;-66
2020/12/06 04:40:55;;;;;;;21.67;11.98;;;;;;;0.70;93.48;94878.72;4963566;28;20078;-65
2020/12/06 04:43:20;;;;;;;22.92;11.23;;;;;;;0.81;93.32;94875.47;4960330;28;20039;-65
2020/12/06 04:45:46;;;;;;;24.38;11.32;;;;;;;0.94;93.84;94874.28;4964414;28;20408;-65
2020/12/06 04:48:36;;;;;;;21.60;11.60;;;;;;;1.00;93.27;94867.47;4958777;28;20043;-66
2020/12/06 04:51:05;;;;;;;20.45;11.95;;;;;;;0.95;93.64;94873.13;4951671;28;20567;-66
2020/12/06 04:53:39;;;;;;;23.58;11.88;;;;;;;0.95;92.96;94868.53;4968340;28;20042;-66
2020/12/06 04:56:10;;;;;;;21.85;11.43;;;;;;;0.92;93.58;94857.69;4960081;28;20058;-66
2020/12/06 04:58:39;;;;;;;20.65;11.70;;;;;;;1.01;93.19;94862.88;4958386;28;20046;-65
2020/12/06 05:01:04;;;;;;;21.45;10.90;;;;;;;0.99;93.28;94865.13;4940330;28;20055;-64
2020/12/06 05:03:34;;;;;;;19.80;10.63;;;;;;;1.12;92.66;94883.56;4946241;28;20043;-66
2020/12/06 05:06:00;;;;;;;18.58;10.35;;;;;;;1.11;92.40;94887.38;4963878;28;20034;-64
2020/12/06 05:08:25;;;;;;;19.05;10.57;;;;;;;1.02;92.54;94884.09;4959317;28;20462;-65
2020/12/06 05:10:52;;;;;;;20.42;10.40;;;;;;;0.88;92.83;94886.44;4964095;28;20047;-66
2020/12/06 05:13:17;;;;;;;19.70;10.02;;;;;;;0.85;93.30;94887.94;4958296;28;20045;-66
2020/12/06 05:15:43;;;;;;;22.85;11.38;;;;;;;0.84;93.47;94870.19;4964153;28;20043;-65
2020/12/06 05:18:09;;;;;;;22.42;11.05;;;;;;;0.80;93.76;94880.09;4951304;28;20133;-66
2020/12/06 05:20:35;;;;;;;20.63;10.88;;;;;;;0.89;93.93;94893.41;4954169;28;20054;-66
2020/12/06 05:23:02;;;;;;;17.45;10.07;;;;;;;0.86;93.96;94886.00;4949354;28;20098;-66
2020/12/06 05:25:27;;;;;;;17.63;9.43;;;;;;;0.95;94.09;94886.63;4941788;28;20055;-64
2020/12/06 05:27:53;;;;;;;18.75;9.95;;;;;;;1.03;93.73;94887.59;4944240;28;20205;-64
2020/12/06 05:30:19;;;;;;;18.98;10.00;;;;;;;1.08;93.79;94885.41;4939252;28;20452;-65
2020/12/06 05:32:45;;;;;;;20.23;10.68;;;;;;;1.13;93.23;94890.53;4949506;28;20138;-64
2020/12/06 05:35:11;;;;;;;17.73;9.88;;;;;;;1.14;93.57;94886.69;4938476;28;20127;-64
2020/12/06 05:37:39;;;;;;;18.45;10.73;;;;;;;1.25;92.36;94902.34;4909639;28;20139;-66
2020/12/06 05:40:10;;;;;;;19.35;10.15;;;;;;;1.29;92.45;94909.38;4908264;28;20050;-64
2020/12/06 05:42:38;;;;;;;21.20;11.57;;;;;;;1.16;92.27;94912.53;4945565;28;20524;-67
2020/12/06 05:45:04;;;;;;;19.45;10.25;;;;;;;1.09;92.20;94913.91;4956175;28;20156;-66
2020/12/06 05:47:30;;;;;;;20.73;10.70;;;;;;;1.04;92.99;94916.88;4959770;28;20047;-66
2020/12/06 05:49:57;;;;;;;22.17;12.05;;;;;;;1.02;93.12;94911.03;4947161;28;20142;-65
2020/12/06 05:52:23;;;;;;;20.40;10.65;;;;;;;1.19;92.66;94922.59;4941867;28;20494;-66
2020/12/06 05:54:49;;;;;;;20.38;11.93;;;;;;;1.32;92.60;94918.69;4943702;28;20134;-67
2020/12/06 05:57:15;;;;;;;19.02;10.48;;;;;;;1.21;91.82;94912.28;4920029;28;20047;-65
2020/12/06 05:59:41;;;;;;;21.42;10.77;;;;;;;1.13;92.51;94914.78;4944179;28;20039;-66
2020/12/06 06:02:07;;;;;;;19.80;10.45;;;;;;;1.10;93.07;94920.09;4939288;28;20043;-66
2020/12/06 06:04:39;;;;;;;21.13;11.00;;;;;;;1.05;92.71;94913.06;4943898;28;20043;-66
2020/12/06 06:07:12;;;;;;;22.20;11.48;;;;;;;1.23;93.25;94923.50;4940756;28;20039;-65
2020/12/06 06:09:41;;;;;;;19.73;10.82;;;;;;;1.26;93.08;94920.06;4941937;28;20043;-66
2020/12/06 06:12:26;;;;;;;17.67;10.02;;;;;;;1.30;92.43;94929.03;4939333;28;20047;-66
2020/12/06 06:14:53;;;;;;;18.88;10.25;;;;;;;1.30;92.67;94932.53;4944612;28;20570;-66
2020/12/06 06:17:22;;;;;;;20.00;10.40;;;;;;;1.31;92.65;94936.00;4938890;28;20098;-66
2020/12/06 06:19:48;;;;;;;20.98;10.95;;;;;;;1.40;92.06;94946.59;4943918;28;20555;-66
2020/12/06 06:22:15;;;;;;;21.77;11.05;;;;;;;1.42;92.06;94947.81;4935592;28;20079;-66
2020/12/06 06:24:42;;;;;;;21.48;10.52;;;;;;;1.40;92.19;94944.66;4944348;28;20040;-66
2020/12/06 06:27:08;;;;;;;19.15;10.23;;;;;;;1.44;92.74;94944.75;4939327;28;20393;-66
2020/12/06 06:29:36;;;;;;;22.20;11.18;;;;;;;1.46;92.47;94959.47;4945823;28;20043;-66
2020/12/06 06:32:03;;;;;;;23.42;12.80;;;;;;;1.51;92.82;94953.81;4948690;28;20054;-65
2020/12/06 06:34:33;;;;;;;24.48;12.65;;;;;;;1.63;94.84;94950.22;4940013;28;20179;-66
2020/12/06 06:36:59;;;;;;;25.27;12.98;;;;;;;1.70;95.10;94944.97;4943759;28;20039;-66
2020/12/06 06:39:26;;;;;;;21.73;12.13;;;;;;;1.56;94.55;94938.47;4938693;28;20136;-64
2020/12/06 06:41:58;;;;;;;21.83;11.23;;;;;;;1.53;94.88;94927.25;4943348;28;20035;-65
2020/12/06 06:44:25;;;;;;;21.17;10.65;;;;;;;1.44;94.32;94928.56;4938245;28;20693;-65
2020/12/06 06:46:51;;;;;;;20.88;10.10;;;;;;;1.50;94.22;94927.97;4943998;28;20497;-64
2020/12/06 06:49:18;;;;;;;22.02;10.25;;;;;;;1.54;93.96;94936.13;4938640;28;20043;-65
2020/12/06 06:51:52;;;;;;;18.92;9.93;;;;;;;1.49;94.10;94947.97;4943277;28;20048;-65
2020/12/06 06:54:25;;;;;;;27.60;13.05;;;;;;;1.36;93.22;94949.22;4939317;28;20070;-65
2020/12/06 06:56:51;;;;;;;21.65;10.95;;;;;;;1.33;93.93;94958.81;4942433;28;20047;-65
2020/12/06 06:59:56;;;;;;;20.33;11.13;;;;;;;1.18;94.41;94948.00;4944136;28;20044;-65
2020/12/06 07:02:36;;;;;;;24.55;11.45;;;;;;;1.02;94.33;94940.69;4934534;29;20359;-65
2020/12/06 07:05:03;;;;;;;;;;;;;;;0.80;95.07;94942.09;4921438;29;20048;-65
2020/12/06 07:07:43;;;;;;;23.05;11.35;;;;;;;0.76;95.39;94952.78;4931533;28;20401;-65
2020/12/06 07:10:11;;;;;;;23.13;11.48;;;;;;;0.71;96.15;94961.09;4938436;28;20054;-66
2020/12/06 07:12:58;;;;;;;40.55;19.25;;;;;;;0.72;96.08;94969.97;4942579;28;20047;-66
2020/12/06 07:15:27;;;;;;;28.48;13.48;;;;;;;0.68;96.63;94967.19;4938214;28;20410;-66
2020/12/06 07:17:54;;;;;;;30.63;12.88;;;;;;;0.69;97.21;94990.31;4942593;28;20066;-66
2020/12/06 07:20:21;;;;;;;28.38;14.20;;;;;;;0.72;97.10;94988.84;4937346;28;20405;-66
2020/12/06 07:22:47;;;;;;;29.92;14.43;;;;;;;0.92;96.83;95005.94;4943172;28;20043;-66
2020/12/06 07:25:15;;;;;;;22.50;10.70;;;;;;;1.06;97.13;95008.19;4937412;28;20054;-66
2020/12/06 07:27:41;;;;;;;18.88;9.77;;;;;;;1.12;96.79;95010.28;4943388;28;20070;-66
2020/12/06 07:30:08;;;;;;;18.80;9.10;;;;;;;1.11;96.97;95005.25;4938288;28;20047;-66
2020/12/06 07:32:34;;;;;;;16.63;9.10;;;;;;;1.12;97.34;95009.53;4942950;28;20044;-66
2020/12/06 07:35:00;;;;;;;21.65;9.60;;;;;;;1.09;96.81;94983.25;4942763;28;20098;-66
2020/12/06 07:37:26;;;;;;;19.20;9.43;;;;;;;1.25;97.07;94985.94;4938531;28;20043;-66
2020/12/06 07:39:51;;;;;;;20.42;10.00;;;;;;;1.35;96.52;94977.31;4943194;28;20048;-65
2020/12/06 07:42:21;;;;;;;18.88;9.25;;;;;;;1.44;96.04;94994.13;4938008;28;20138;-64
2020/12/06 07:44:48;;;;;;;;;;;;;;;1.30;95.82;94994.56;4943401;28;20138;-64
2020/12/06 07:47:14;;;;;;;19.20;9.77;;;;;;;0.99;95.44;94991.84;4938874;28;20001;-67
2020/12/06 07:49:44;;;;;;;18.25;9.90;;;;;;;0.90;95.66;95000.09;4943062;28;20775;-68
2020/12/06 07:52:17;;;;;;;25.75;12.50;;;;;;;1.01;95.23;95017.34;4937667;28;20039;-66
2020/12/06 07:54:58;;;;;;;26.42;13.45;;;;;;;1.31;95.41;95033.91;4942084;28;20157;-66
2020/12/06 07:57:34;;;;;;;20.95;10.65;;;;;;;1.29;95.13;95021.88;4939414;28;20828;-66
2020/12/06 08:00:00;;;;;;;18.52;9.80;;;;;;;1.28;95.23;95020.31;4947903;28;20047;-67
2020/12/06 08:02:31;;;;;;;21.95;10.93;;;;;;;1.51;94.24;95042.06;4939698;28;20416;-67
2020/12/06 08:04:58;;;;;;;14.73;8.52;;;;;;;1.63;92.84;95049.28;4957078;28;20043;-67
2020/12/06 08:07:27;;;;;;;12.57;6.97;;;;;;;1.37;93.57;95028.22;4948229;28;20035;-67
2020/12/06 08:09:55;;;;;;;13.35;6.75;;;;;;;1.30;93.90;95013.44;4952211;28;20074;-65
2020/12/06 08:12:23;;;;;;;30.10;13.27;;;;;;;1.07;94.02;95017.84;4937572;28;20047;-66
2020/12/06 08:14:57;;;;;;;14.98;7.75;;;;;;;0.82;94.30;95006.44;4944518;28;20046;-67
2020/12/06 08:17:22;;;;;;;9.13;5.50;;;;;;;0.65;95.31;95005.63;4944554;28;20571;-68
2020/12/06 08:19:48;;;;;;;9.57;4.93;;;;;;;0.70;95.33;95020.72;4937391;28;20433;-67
2020/12/06 08:22:13;;;;;;;9.48;5.45;;;;;;;0.67;94.82;95021.44;4952052;28;20047;-65
2020/12/06 08:24:39;;;;;;;9.65;5.63;;;;;;;0.75;94.59;95021.28;4962565;28;20054;-67
2020/12/06 08:27:04;;;;;;;11.05;5.22;;;;;;;0.87;94.18;95023.13;4949966;28;20040;-64
2020/12/06 08:29:38;;;;;;;9.57;5.78;;;;;;;1.13;93.34;95035.34;4942256;28;20047;-64
2020/12/06 08:32:04;;;;;;;29.05;14.27;;;;;;;1.11;92.62;95030.28;4938685;28;20090;-64
2020/12/06 08:34:30;;;;;;;13.40;7.55;;;;;;;0.95;92.47;95026.78;4946354;28;20050;-65
2020/12/06 08:36:55;;;;;;;8.15;5.15;;;;;;;0.80;92.72;95012.16;4946030;28;20134;-65
2020/12/06 08:39:22;;;;;;;9.38;5.18;;;;;;;0.85;92.53;95013.84;4941759;28;20514;-66
2020/12/06 08:41:50;;;;;;;9.95;4.75;;;;;;;0.86;92.54;95018.06;4946077;28;20051;-66
2020/12/06 08:44:16;;;;;;;8.75;5.18;;;;;;;0.90;93.30;95018.94;4941080;28;20079;-65
2020/12/06 08:46:52;;;;;;;8.75;4.65;;;;;;;1.04;92.55;95024.72;4944944;28;20437;-66
2020/12/06 08:49:19;;;;;;;15.10;7.13;;;;;;;0.95;91.49;95024.09;4941457;28;20043;-66
2020/12/06 08:51:49;;;;;;;9.63;5.05;;;;;;;0.83;91.52;95013.38;4946070;28;20381;-66
2020/12/06 08:54:14;;;;;;;12.40;6.47;;;;;;;0.61;91.84;95004.72;4941087;28;20050;-66
2020/12/06 08:56:43;;;;;;;12.15;5.63;;;;;;;0.68;91.80;94993.34;4945296;28;20039;-66
2020/12/06 08:59:14;;;;;;;11.95;5.95;;;;;;;0.87;92.03;94990.00;4940530;28;20178;-64
2020/12/06 09:01:54;;;;;;;12.13;6.18;;;;;;;1.06;92.35;94990.13;4945404;28;20047;-66
2020/12/06 09:04:20;;;;;;;6.95;4.20;;;;;;;1.21;91.17;94988.56;4940882;28;20054;-65
2020/12/06 09:06:46;;;;;;;5.18;3.85;;;;;;;1.32;90.10;94996.91;4945653;28;20051;-66
2020/12/06 09:09:12;;;;;;;4.68;3.15;;;;;;;1.41;89.74;94994.03;4939839;28;20416;-63
2020/12/06 09:11:37;;;;;;;5.65;3.33;;;;;;;1.34;88.92;95005.44;4944747;28;20047;-67
2020/12/06 09:14:03;;;;;;;6.13;3.72;;;;;;;1.52;88.93;95027.44;4943573;28;20039;-63
2020/12/06 09:16:29;;;;;;;5.72;3.22;;;;;;;1.47;88.75;95033.09;4943789;28;20035;-64
2020/12/06 09:18:54;;;;;;;6.35;3.45;;;;;;;1.41;88.84;95031.81;4945222;28;20134;-64
2020/12/06 09:21:20;;;;;;;6.03;3.38;;;;;;;1.32;89.30;95018.47;4939004;28;20805;-65
2020/12/06 09:23:46;;;;;;;6.07;3.58;;;;;;;1.44;89.98;95020.28;4946099;28;20504;-64
2020/12/06 09:26:12;;;;;;;9.50;4.82;;;;;;;1.28;89.05;95028.41;4941084;28;20039;-67
2020/12/06 09:28:37;;;;;;;9.98;5.15;;;;;;;1.18;89.45;95024.31;4945006;28;20572;-66
2020/12/06 09:31:03;;;;;;;7.65;4.18;;;;;;;0.98;90.26;95025.34;4943055;28;20035;-63
2020/12/06 09:33:29;;;;;;;9.25;5.15;;;;;;;1.07;90.42;95021.34;4944268;28;20725;-67
2020/12/06 09:35:54;;;;;;;8.40;5.40;;;;;;;1.02;89.95;95015.41;4943813;28;20055;-65
2020/12/06 09:38:20;;;;;;;8.88;5.07;;;;;;;1.15;90.11;95016.91;4940970;28;20400;-65
2020/12/06 09:40:46;;;;;;;8.77;5.38;;;;;;;1.17;90.25;95027.34;4944582;28;20051;-65
2020/12/06 09:43:11;;;;;;;10.55;6.65;;;;;;;0.88;90.82;95032.00;4939447;28;20043;-64
2020/12/06 09:45:38;;;;;;;51.20;23.73;;;;;;;0.47;93.41;95036.66;4946711;28;20133;-66
2020/12/06 09:48:04;;;;;;;22.33;12.55;;;;;;;0.37;94.95;95029.84;4941401;28;20047;-65
2020/12/06 09:50:29;;;;;;;14.23;8.60;;;;;;;0.32;95.63;95032.78;4944255;28;20047;-67
2020/12/06 09:52:55;;;;;;;14.82;7.60;;;;;;;0.33;95.48;95027.06;4943994;28;20047;-67
2020/12/06 09:55:21;;;;;;;11.63;6.72;;;;;;;0.42;96.08;95020.75;4940443;28;20035;-65
2020/12/06 09:57:46;;;;;;;16.65;8.18;;;;;;;0.55;95.70;95019.56;4945083;28;20035;-65
2020/12/06 10:00:12;;;;;;;11.75;7.38;;;;;;;0.86;95.39;95010.78;4939720;28;20051;-66
2020/12/06 10:02:37;;;;;;;10.38;6.85;;;;;;;1.28;94.47;94999.50;4944421;28;20044;-67
2020/12/06 10:05:03;;;;;;;12.40;7.03;;;;;;;1.57;93.75;94992.09;4943127;28;20050;-65
2020/12/06 10:07:28;;;;;;;11.63;6.60;;;;;;;1.78;92.07;94994.50;4942513;28;20077;-67
2020/12/06 10:09:54;;;;;;;13.68;8.77;;;;;;;2.11;90.80;94985.19;4944309;28;20062;-67
2020/12/06 10:12:19;;;;;;;10.85;6.68;;;;;;;2.44;89.28;94975.81;4939430;28;20057;-65
2020/12/06 10:14:45;;;;;;;10.90;5.25;;;;;;;2.57;87.78;94979.16;4944380;28;20396;-66
2020/12/06 10:17:11;;;;;;;7.65;4.75;;;;;;;2.75;87.33;94974.84;4939357;28;20078;-66
2020/12/06 10:19:36;;;;;;;6.03;4.03;;;;;;;2.78;86.96;94973.38;4942661;28;20051;-65
2020/12/06 10:22:02;;;;;;;6.18;4.22;;;;;;;2.82;87.15;94976.91;4940879;28;20046;-65
2020/12/06 10:24:27;;;;;;;7.60;4.32;;;;;;;2.79;87.41;94975.72;4947817;28;20070;-67
2020/12/06 10:26:54;;;;;;;6.40;4.18;;;;;;;2.88;86.62;94980.88;4964687;28;20031;-65
2020/12/06 10:29:20;;;;;;;7.03;3.88;;;;;;;2.87;86.14;94990.91;4963130;28;20052;-65
2020/12/06 10:31:49;;;;;;;7.53;4.38;;;;;;;3.11;85.94;94999.06;4963472;28;20529;-66
2020/12/06 10:34:14;;;;;;;6.40;4.32;;;;;;;3.21;85.28;94993.84;4944600;28;20058;-64
2020/12/06 10:36:40;;;;;;;4.90;3.13;;;;;;;3.10;85.35;95003.69;4956826;28;20070;-64
2020/12/06 10:39:05;;;;;;;4.40;3.15;;;;;;;3.17;85.37;95009.22;4941361;28;20125;-66
2020/12/06 10:41:30;;;;;;;4.35;3.15;;;;;;;3.05;84.71;95009.41;4944153;28;20079;-65
2020/12/06 10:43:56;;;;;;;3.75;2.60;;;;;;;3.30;83.84;95022.59;4943207;28;20475;-66
2020/12/06 10:46:26;;;;;;;4.03;2.53;;;;;;;3.30;84.24;95017.94;4940095;28;20070;-65
2020/12/06 10:48:51;;;;;;;18.35;7.60;;;;;;;3.36;84.64;95013.78;4945346;28;20047;-63
2020/12/06 10:51:17;;;;;;;5.10;3.20;;;;;;;3.46;83.96;95009.72;4938660;28;20049;-64
2020/12/06 10:53:43;;;;;;;4.35;3.05;;;;;;;3.52;83.83;95008.25;4943985;28;20035;-67
2020/12/06 10:56:08;;;;;;;4.00;2.97;;;;;;;3.53;83.91;95011.75;4937765;28;20481;-65
2020/12/06 10:58:33;;;;;;;5.82;3.10;;;;;;;3.55;83.83;95014.88;4943573;28;20102;-67
2020/12/06 11:00:59;;;;;;;3.85;3.00;;;;;;;3.64;84.16;95007.28;4943960;28;20138;-66
2020/12/06 11:03:24;;;;;;;4.38;2.75;;;;;;;3.57;83.28;94999.84;4938483;28;20043;-65
2020/12/06 11:05:50;;;;;;;5.03;3.10;;;;;;;3.58;83.65;94998.69;4943387;28;20062;-66
2020/12/06 11:08:15;;;;;;;4.15;3.15;;;;;;;3.67;83.56;95006.53;4939186;28;20053;-66
2020/12/06 11:10:41;;;;;;;3.25;2.28;;;;;;;3.57;83.57;95005.25;4944177;28;20047;-66
2020/12/06 11:13:06;;;;;;;4.15;2.72;;;;;;;3.45;83.93;95008.13;4938186;28;20126;-66
2020/12/06 11:15:31;;;;;;;5.18;3.22;;;;;;;3.44;84.51;95015.50;4943230;28;20074;-66
2020/12/06 11:17:58;;;;;;;5.03;3.10;;;;;;;3.43;83.85;95013.13;4942982;28;20050;-65
2020/12/06 11:20:24;;;;;;;4.22;2.63;;;;;;;3.42;84.24;95016.97;4939083;28;20633;-64
2020/12/06 11:22:49;;;;;;;4.32;2.80;;;;;;;3.35;84.03;95023.06;4943562;28;20420;-67
2020/12/06 11:25:15;;;;;;;5.70;3.38;;;;;;;3.04;85.09;95014.03;4942404;28;20172;-65
2020/12/06 11:27:40;;;;;;;4.10;2.78;;;;;;;2.99;85.52;95018.94;4966615;28;20143;-66